createdAt,value
2023-05-25T06:44:37.322Z,102853.31
2023-05-25T13:13:11.504Z,102966.28
2023-05-25T13:18:13.418Z,102964.06
2023-05-25T13:23:15.244Z,102956.13
2023-05-25T13:28:16.822Z,102964.72
2023-05-25T13:33:22.197Z,102956.09
2023-05-25T13:38:24.855Z,102955.88
2023-05-25T13:43:27.129Z,102955.13
2023-05-25T13:53:54.641Z,102921.22
2023-05-25T13:58:56.434Z,102948.78
2023-05-25T14:04:01.446Z,102947.00
2023-05-25T14:14:13.658Z,102945.59
2023-05-25T14:19:21.153Z,102948.50
2023-05-25T14:24:22.704Z,102942.72
2023-05-25T14:29:24.268Z,102948.09
2023-05-25T14:34:25.987Z,102950.72
2023-05-25T14:39:27.520Z,102959.00
2023-05-25T14:44:29.251Z,102951.78
2023-05-25T14:49:30.911Z,102959.28
2023-05-25T14:54:34.422Z,102961.94
2023-05-25T14:59:36.681Z,102958.88
2023-05-25T15:04:38.272Z,102949.19
2023-05-25T15:09:40.737Z,102949.19
2023-05-25T15:14:42.499Z,102961.50
2023-05-25T15:19:44.042Z,102949.91
2023-05-25T15:24:45.664Z,102948.03
2023-05-25T15:29:47.274Z,102958.31
2023-05-25T15:34:48.809Z,102967.72
2023-05-25T15:39:50.510Z,102959.28
2023-05-25T15:44:52.042Z,102951.78
2023-05-25T15:49:53.616Z,102956.00
2023-05-25T15:54:55.178Z,102971.03
2023-05-25T15:59:56.754Z,102968.72
2023-05-25T16:04:58.446Z,102971.47
2023-05-25T16:10:00.037Z,102961.06
2023-05-25T16:15:01.585Z,102959.72
2023-05-25T16:20:03.395Z,102963.38
2023-05-25T16:25:05.344Z,102961.03
2023-05-25T16:30:07.665Z,102954.22
2023-05-25T16:35:09.470Z,102958.13
2023-05-25T16:40:11.329Z,102959.59
2023-05-25T16:45:12.892Z,102952.78
2023-05-25T16:50:14.475Z,102951.19
2023-05-25T16:55:16.240Z,102965.31
2023-05-25T17:00:17.990Z,102954.94
2023-05-25T17:05:19.622Z,102956.97
2023-05-25T17:10:21.146Z,102957.97
2023-05-25T17:15:22.657Z,102978.38
2023-05-25T17:20:24.221Z,102957.22
2023-05-25T17:25:25.818Z,102963.53
2023-05-25T17:30:27.320Z,102954.81
2023-05-25T17:35:31.692Z,102957.69
2023-05-25T17:40:33.220Z,102967.38
2023-05-25T17:45:34.851Z,102957.09
2023-05-25T17:50:36.480Z,102975.56
2023-05-25T17:55:38.054Z,102972.59
2023-05-25T18:00:39.622Z,102972.25
2023-05-25T18:05:41.232Z,102985.72
2023-05-25T18:10:42.797Z,102976.69
2023-05-25T18:15:44.555Z,102983.72
2023-05-25T18:20:46.773Z,102977.69
2023-05-25T18:25:48.336Z,102977.56
2023-05-25T18:30:49.915Z,102975.59
2023-05-25T18:35:51.474Z,102987.97
2023-05-25T18:40:53.033Z,102990.84
2023-05-25T18:45:54.624Z,102993.72
2023-05-25T18:50:56.525Z,102988.44
2023-05-25T18:55:58.026Z,102987.19
2023-05-25T19:00:59.576Z,102985.69
2023-05-25T19:06:01.168Z,102982.66
2023-05-25T19:11:02.748Z,102989.53
2023-05-25T19:16:04.526Z,102984.06
2023-05-25T19:21:06.608Z,102992.28
2023-05-25T19:26:08.162Z,102991.75
2023-05-25T19:31:09.670Z,102990.03
2023-05-25T19:36:11.662Z,102989.78
2023-05-25T19:41:13.291Z,102995.53
2023-05-25T19:46:14.883Z,103009.81
2023-05-25T19:51:16.454Z,103007.69
2023-05-25T19:56:18.244Z,103010.69
2023-05-25T20:01:19.832Z,103017.28
2023-05-25T20:06:21.428Z,103023.50
2023-05-25T20:11:22.987Z,103024.88
2023-05-25T20:16:25.910Z,103028.59
2023-05-25T20:21:28.463Z,103033.66
2023-05-25T20:26:30.402Z,103037.03
2023-05-25T20:31:31.976Z,103034.53
2023-05-25T20:36:33.565Z,103053.00
2023-05-25T20:41:35.354Z,103058.59
2023-05-25T20:46:37.079Z,103055.44
2023-05-25T20:51:38.728Z,103064.13
2023-05-25T20:56:40.443Z,103067.88
2023-05-25T21:01:42.099Z,103067.09
2023-05-25T21:06:43.730Z,103068.34
2023-05-25T21:11:45.655Z,103065.84
2023-05-25T21:16:47.208Z,103069.56
2023-05-25T21:21:48.821Z,103057.88
2023-05-25T21:26:50.470Z,103068.78
2023-05-25T21:31:52.095Z,103066.66
2023-05-25T21:36:53.745Z,103064.56
2023-05-25T21:41:55.309Z,103060.34
2023-05-25T21:46:56.844Z,103069.09
2023-05-25T21:51:58.462Z,103059.28
2023-05-25T21:57:00.060Z,103070.84
2023-05-25T22:02:01.678Z,103061.25
2023-05-25T22:07:03.294Z,103068.78
2023-05-25T22:12:05.135Z,103069.06
2023-05-25T22:17:07.357Z,103078.97
2023-05-25T22:22:08.943Z,103079.63
2023-05-25T22:27:10.544Z,103068.84
2023-05-25T22:32:12.103Z,103067.84
2023-05-25T22:37:14.043Z,103069.69
2023-05-25T22:42:15.596Z,103060.22
2023-05-25T22:47:17.289Z,103070.25
2023-05-25T22:52:19.433Z,103069.81
2023-05-25T22:57:20.995Z,103070.16
2023-05-25T23:02:22.558Z,103073.13
2023-05-25T23:07:24.130Z,103072.38
2023-05-25T23:12:25.744Z,103068.75
2023-05-25T23:17:27.387Z,103062.88
2023-05-25T23:22:28.950Z,103055.91
2023-05-25T23:27:31.829Z,103060.81
2023-05-25T23:32:33.450Z,103069.25
2023-05-25T23:37:35.443Z,103060.09
2023-05-25T23:42:43.301Z,103062.28
2023-05-25T23:47:44.897Z,103057.78
2023-05-25T23:52:46.670Z,103060.41
2023-05-25T23:57:48.262Z,103047.97
